sensor_id;sensor_type;location;lat;lon;timestamp;pressure;altitude;pressure_sealevel;temperature;humidity
75221;BME280;63802;53.232;6.570;2024-03-25T00:00:28;100553.16;;;4.95;100.00
75221;BME280;63802;53.232;6.570;2024-03-25T00:03:23;100533.13;;;4.75;100.00
75221;BME280;63802;53.232;6.570;2024-03-25T00:09:06;100554.47;;;4.89;100.00
75221;BME280;63802;53.232;6.570;2024-03-25T00:11:33;100568.38;;;4.99;100.00
75221;BME280;63802;53.232;6.570;2024-03-25T00:13:58;100565.91;;;5.06;100.00
75221;BME280;63802;53.232;6.570;2024-03-25T00:17:00;100563.56;;;5.05;100.00
75221;BME280;63802;53.232;6.570;2024-03-25T00:19:48;100564.94;;;5.11;100.00
75221;BME280;63802;53.232;6.570;2024-03-25T00:22:35;100540.38;;;4.83;100.00
75221;BME280;63802;53.232;6.570;2024-03-25T00:25:01;100545.13;;;4.86;100.00
75221;BME280;63802;53.232;6.570;2024-03-25T00:27:39;100523.63;;;4.69;100.00
75221;BME280;63802;53.232;6.570;2024-03-25T00:32:40;100492.66;;;4.46;100.00
75221;BME280;63802;53.232;6.570;2024-03-25T00:35:06;100565.28;;;4.89;100.00
75221;BME280;63802;53.232;6.570;2024-03-25T00:37:39;100565.84;;;4.82;100.00
75221;BME280;63802;53.232;6.570;2024-03-25T00:40:45;100521.94;;;4.64;100.00
75221;BME280;63802;53.232;6.570;2024-03-25T00:47:15;100530.63;;;4.70;100.00
75221;BME280;63802;53.232;6.570;2024-03-25T00:49:41;100488.38;;;4.45;100.00
75221;BME280;63802;53.232;6.570;2024-03-25T00:52:07;100483.44;;;4.47;100.00
75221;BME280;63802;53.232;6.570;2024-03-25T00:54:58;100539.06;;;4.89;100.00
75221;BME280;63802;53.232;6.570;2024-03-25T00:57:27;100484.38;;;4.51;100.00
75221;BME280;63802;53.232;6.570;2024-03-25T01:03:30;100539.06;;;4.89;100.00
75221;BME280;63802;53.232;6.570;2024-03-25T01:06:14;100536.28;;;4.98;100.00
75221;BME280;63802;53.232;6.570;2024-03-25T01:09:00;100537.84;;;4.99;100.00
75221;BME280;63802;53.232;6.570;2024-03-25T01:11:31;100495.31;;;4.75;100.00
75221;BME280;63802;53.232;6.570;2024-03-25T01:14:32;100458.91;;;4.52;100.00
75221;BME280;63802;53.232;6.570;2024-03-25T01:17:13;100523.50;;;4.86;100.00
75221;BME280;63802;53.232;6.570;2024-03-25T01:19:48;100523.28;;;4.91;100.00
75221;BME280;63802;53.232;6.570;2024-03-25T01:25:30;100473.28;;;4.64;100.00
75221;BME280;63802;53.232;6.570;2024-03-25T01:28:13;100472.50;;;4.64;100.00
75221;BME280;63802;53.232;6.570;2024-03-25T01:33:56;100502.16;;;4.72;100.00
75221;BME280;63802;53.232;6.570;2024-03-25T01:36:37;100519.53;;;4.84;100.00
75221;BME280;63802;53.232;6.570;2024-03-25T01:39:09;100531.59;;;4.86;100.00
75221;BME280;63802;53.232;6.570;2024-03-25T01:42:01;100566.59;;;5.03;100.00
75221;BME280;63802;53.232;6.570;2024-03-25T01:44:52;100496.09;;;4.55;100.00
75221;BME280;63802;53.232;6.570;2024-03-25T01:47:28;100523.69;;;4.81;100.00
75221;BME280;63802;53.232;6.570;2024-03-25T01:53:14;100527.97;;;4.61;100.00
75221;BME280;63802;53.232;6.570;2024-03-25T01:56:31;100509.66;;;4.46;100.00
75221;BME280;63802;53.232;6.570;2024-03-25T01:59:18;100563.72;;;4.67;100.00
75221;BME280;63802;53.232;6.570;2024-03-25T02:05:46;100598.00;;;4.75;100.00
75221;BME280;63802;53.232;6.570;2024-03-25T02:08:20;100574.44;;;4.55;100.00
75221;BME280;63802;53.232;6.570;2024-03-25T02:10:46;100583.72;;;4.66;100.00
75221;BME280;63802;53.232;6.570;2024-03-25T02:13:12;100560.84;;;4.43;100.00
75221;BME280;63802;53.232;6.570;2024-03-25T02:15:53;100624.63;;;4.85;100.00
75221;BME280;63802;53.232;6.570;2024-03-25T02:18:23;100557.69;;;4.41;100.00
75221;BME280;63802;53.232;6.570;2024-03-25T02:21:20;100614.34;;;4.79;100.00
75221;BME280;63802;53.232;6.570;2024-03-25T02:24:16;100562.22;;;4.49;100.00
75221;BME280;63802;53.232;6.570;2024-03-25T02:26:50;100614.47;;;4.82;100.00
75221;BME280;63802;53.232;6.570;2024-03-25T02:29:41;100546.44;;;4.39;100.00
75221;BME280;63802;53.232;6.570;2024-03-25T02:35:43;100541.41;;;4.29;100.00
75221;BME280;63802;53.232;6.570;2024-03-25T02:38:18;100546.81;;;4.29;100.00
75221;BME280;63802;53.232;6.570;2024-03-25T02:41:24;100613.28;;;4.71;100.00
75221;BME280;63802;53.232;6.570;2024-03-25T02:43:50;100578.72;;;4.56;100.00
75221;BME280;63802;53.232;6.570;2024-03-25T02:49:34;100547.91;;;4.28;100.00
75221;BME280;63802;53.232;6.570;2024-03-25T02:52:15;100580.59;;;4.35;100.00
75221;BME280;63802;53.232;6.570;2024-03-25T02:54:51;100594.28;;;4.30;100.00
75221;BME280;63802;53.232;6.570;2024-03-25T02:57:30;100614.13;;;4.34;100.00
75221;BME280;63802;53.232;6.570;2024-03-25T02:59:56;100560.66;;;3.89;100.00
75221;BME280;63802;53.232;6.570;2024-03-25T03:02:25;100577.31;;;3.91;100.00
75221;BME280;63802;53.232;6.570;2024-03-25T03:04:50;100580.19;;;3.86;100.00
75221;BME280;63802;53.232;6.570;2024-03-25T03:11:08;100610.59;;;4.04;100.00
75221;BME280;63802;53.232;6.570;2024-03-25T03:13:34;100595.56;;;3.94;100.00
75221;BME280;63802;53.232;6.570;2024-03-25T03:16:18;100624.84;;;4.13;100.00
75221;BME280;63802;53.232;6.570;2024-03-25T03:19:03;100622.50;;;4.12;100.00
75221;BME280;63802;53.232;6.570;2024-03-25T03:21:39;100613.94;;;4.10;100.00
75221;BME280;63802;53.232;6.570;2024-03-25T03:24:23;100652.44;;;4.27;100.00
75221;BME280;63802;53.232;6.570;2024-03-25T03:27:08;100619.78;;;4.12;100.00
75221;BME280;63802;53.232;6.570;2024-03-25T03:29:49;100616.00;;;4.13;100.00
75221;BME280;63802;53.232;6.570;2024-03-25T03:32:45;100658.72;;;4.48;100.00
75221;BME280;63802;53.232;6.570;2024-03-25T03:35:15;100635.94;;;4.29;100.00
75221;BME280;63802;53.232;6.570;2024-03-25T03:38:00;100632.75;;;4.27;100.00
75221;BME280;63802;53.232;6.570;2024-03-25T03:40:37;100631.03;;;4.22;100.00
75221;BME280;63802;53.232;6.570;2024-03-25T03:43:14;100592.97;;;4.06;100.00
75221;BME280;63802;53.232;6.570;2024-03-25T03:45:40;100633.22;;;4.29;100.00
75221;BME280;63802;53.232;6.570;2024-03-25T03:48:18;100592.69;;;3.99;100.00
75221;BME280;63802;53.232;6.570;2024-03-25T03:50:52;100635.00;;;4.25;100.00
75221;BME280;63802;53.232;6.570;2024-03-25T03:53:52;100660.19;;;4.37;100.00
75221;BME280;63802;53.232;6.570;2024-03-25T03:56:18;100636.75;;;4.21;100.00
75221;BME280;63802;53.232;6.570;2024-03-25T03:58:58;100596.19;;;3.91;100.00
75221;BME280;63802;53.232;6.570;2024-03-25T04:01:31;100658.63;;;4.28;100.00
75221;BME280;63802;53.232;6.570;2024-03-25T04:03:57;100625.38;;;4.06;100.00
75221;BME280;63802;53.232;6.570;2024-03-25T04:06:22;100637.09;;;4.11;100.00
75221;BME280;63802;53.232;6.570;2024-03-25T04:08:51;100608.59;;;3.92;100.00
75221;BME280;63802;53.232;6.570;2024-03-25T04:11:18;100621.41;;;4.04;100.00
75221;BME280;63802;53.232;6.570;2024-03-25T04:16:55;100667.97;;;4.39;100.00
75221;BME280;63802;53.232;6.570;2024-03-25T04:19:23;100628.81;;;4.16;100.00
75221;BME280;63802;53.232;6.570;2024-03-25T04:21:58;100626.13;;;4.16;100.00
75221;BME280;63802;53.232;6.570;2024-03-25T04:24:26;100639.78;;;4.19;100.00
75221;BME280;63802;53.232;6.570;2024-03-25T04:26:58;100623.94;;;4.09;100.00
75221;BME280;63802;53.232;6.570;2024-03-25T04:32:55;100593.31;;;3.96;100.00
75221;BME280;63802;53.232;6.570;2024-03-25T04:42:31;100671.59;;;4.43;100.00
75221;BME280;63802;53.232;6.570;2024-03-25T04:45:03;100626.13;;;4.16;100.00
75221;BME280;63802;53.232;6.570;2024-03-25T04:50:39;100612.97;;;4.05;100.00
75221;BME280;63802;53.232;6.570;2024-03-25T04:53:39;100676.53;;;4.41;100.00
75221;BME280;63802;53.232;6.570;2024-03-25T05:03:06;100680.19;;;4.45;100.00
75221;BME280;63802;53.232;6.570;2024-03-25T05:05:38;100618.03;;;4.16;100.00
75221;BME280;63802;53.232;6.570;2024-03-25T05:16:12;100673.84;;;4.41;100.00
75221;BME280;63802;53.232;6.570;2024-03-25T05:19:05;100612.69;;;3.98;100.00
75221;BME280;63802;53.232;6.570;2024-03-25T05:21:48;100643.75;;;4.22;100.00
75221;BME280;63802;53.232;6.570;2024-03-25T05:31:17;100662.66;;;4.13;100.00
75221;BME280;63802;53.232;6.570;2024-03-25T05:34:25;100660.94;;;4.08;100.00
75221;BME280;63802;53.232;6.570;2024-03-25T05:40:30;100587.09;;;3.58;100.00
75221;BME280;63802;53.232;6.570;2024-03-25T06:15:00;100624.94;;;4.63;100.00
75221;BME280;63802;53.232;6.570;2024-03-25T06:18:03;100645.31;;;4.81;100.00
75221;BME280;63802;53.232;6.570;2024-03-25T06:20:54;100621.75;;;4.61;100.00
75221;BME280;63802;53.232;6.570;2024-03-25T06:23:37;100629.81;;;4.69;100.00
75221;BME280;63802;53.232;6.570;2024-03-25T06:26:03;100637.88;;;4.78;100.00
75221;BME280;63802;53.232;6.570;2024-03-25T06:31:47;100597.25;;;4.66;100.00
75221;BME280;63802;53.232;6.570;2024-03-25T06:34:53;100655.91;;;5.15;100.00
75221;BME280;63802;53.232;6.570;2024-03-25T06:40:18;100626.28;;;4.98;100.00
75221;BME280;63802;53.232;6.570;2024-03-25T06:45:48;100624.75;;;4.89;100.00
75221;BME280;63802;53.232;6.570;2024-03-25T06:48:17;100626.22;;;4.86;100.00
75221;BME280;63802;53.232;6.570;2024-03-25T06:51:40;100649.69;;;5.15;100.00
75221;BME280;63802;53.232;6.570;2024-03-25T06:54:08;100630.69;;;5.23;100.00
75221;BME280;63802;53.232;6.570;2024-03-25T06:56:50;100659.53;;;5.73;100.00
75221;BME280;63802;53.232;6.570;2024-03-25T06:59:38;100633.13;;;5.70;100.00
75221;BME280;63802;53.232;6.570;2024-03-25T07:02:18;100669.34;;;6.10;100.00
75221;BME280;63802;53.232;6.570;2024-03-25T07:04:54;100616.72;;;5.87;100.00
75221;BME280;63802;53.232;6.570;2024-03-25T07:07:20;100648.09;;;6.00;100.00
75221;BME280;63802;53.232;6.570;2024-03-25T07:09:55;100649.69;;;6.01;100.00
75221;BME280;63802;53.232;6.570;2024-03-25T07:12:23;100627.94;;;5.77;100.00
75221;BME280;63802;53.232;6.570;2024-03-25T07:14:58;100704.13;;;6.20;100.00
75221;BME280;63802;53.232;6.570;2024-03-25T07:17:28;100710.81;;;6.23;100.00
75221;BME280;63802;53.232;6.570;2024-03-25T07:22:49;100685.16;;;6.08;100.00
75221;BME280;63802;53.232;6.570;2024-03-25T07:25:15;100657.44;;;5.90;100.00
75221;BME280;63802;53.232;6.570;2024-03-25T07:27:46;100657.25;;;5.95;100.00
75221;BME280;63802;53.232;6.570;2024-03-25T07:30:35;100727.69;;;6.52;100.00
75221;BME280;63802;53.232;6.570;2024-03-25T07:33:27;100686.88;;;6.25;100.00
75221;BME280;63802;53.232;6.570;2024-03-25T07:36:00;100670.72;;;6.16;100.00
75221;BME280;63802;53.232;6.570;2024-03-25T07:38:26;100659.19;;;6.07;100.00
75221;BME280;63802;53.232;6.570;2024-03-25T07:43:49;100693.34;;;6.56;100.00
75221;BME280;63802;53.232;6.570;2024-03-25T07:46:27;100712.91;;;6.86;100.00
75221;BME280;63802;53.232;6.570;2024-03-25T07:48:58;100686.50;;;7.11;100.00
75221;BME280;63802;53.232;6.570;2024-03-25T07:51:25;100689.53;;;7.61;100.00
75221;BME280;63802;53.232;6.570;2024-03-25T07:53:50;100745.69;;;8.13;100.00
75221;BME280;63802;53.232;6.570;2024-03-25T07:56:16;100715.41;;;7.98;100.00
75221;BME280;63802;53.232;6.570;2024-03-25T07:58:42;100746.72;;;8.36;100.00
75221;BME280;63802;53.232;6.570;2024-03-25T08:01:22;100694.66;;;7.78;100.00
75221;BME280;63802;53.232;6.570;2024-03-25T08:03:48;100734.13;;;7.60;100.00
75221;BME280;63802;53.232;6.570;2024-03-25T08:06:14;100719.28;;;7.18;100.00
75221;BME280;63802;53.232;6.570;2024-03-25T08:08:43;100774.66;;;7.53;100.00
75221;BME280;63802;53.232;6.570;2024-03-25T08:11:12;100744.22;;;7.48;100.00
75221;BME280;63802;53.232;6.570;2024-03-25T08:13:38;100751.00;;;7.41;100.00
75221;BME280;63802;53.232;6.570;2024-03-25T08:19:19;100741.66;;;7.79;100.00
75221;BME280;63802;53.232;6.570;2024-03-25T08:21:45;100764.03;;;8.16;100.00
75221;BME280;63802;53.232;6.570;2024-03-25T08:24:14;100713.94;;;8.01;100.00
75221;BME280;63802;53.232;6.570;2024-03-25T08:26:49;100770.22;;;8.44;100.00
75221;BME280;63802;53.232;6.570;2024-03-25T08:29:49;100722.78;;;8.41;100.00
75221;BME280;63802;53.232;6.570;2024-03-25T08:32:50;100731.28;;;8.71;100.00
75221;BME280;63802;53.232;6.570;2024-03-25T08:35:23;100778.84;;;9.08;100.00
75221;BME280;63802;53.232;6.570;2024-03-25T08:37:49;100756.25;;;9.23;100.00
75221;BME280;63802;53.232;6.570;2024-03-25T08:40:19;100769.50;;;9.60;100.00
75221;BME280;63802;53.232;6.570;2024-03-25T08:42:50;100763.91;;;9.72;100.00
75221;BME280;63802;53.232;6.570;2024-03-25T08:45:31;100729.91;;;9.66;100.00
75221;BME280;63802;53.232;6.570;2024-03-25T08:48:00;100753.31;;;9.86;100.00
75221;BME280;63802;53.232;6.570;2024-03-25T08:50:46;100758.53;;;9.75;100.00
75221;BME280;63802;53.232;6.570;2024-03-25T08:53:22;100740.31;;;8.91;100.00
75221;BME280;63802;53.232;6.570;2024-03-25T08:56:00;100761.56;;;8.69;100.00
75221;BME280;63802;53.232;6.570;2024-03-25T08:58:35;100735.75;;;8.32;100.00
75221;BME280;63802;53.232;6.570;2024-03-25T09:01:00;100750.56;;;8.07;100.00
75221;BME280;63802;53.232;6.570;2024-03-25T09:03:35;100738.13;;;7.78;100.00
75221;BME280;63802;53.232;6.570;2024-03-25T09:06:10;100738.63;;;7.96;100.00
75221;BME280;63802;53.232;6.570;2024-03-25T09:08:51;100782.97;;;8.55;100.00
75221;BME280;63802;53.232;6.570;2024-03-25T09:11:44;100761.09;;;8.52;100.00
75221;BME280;63802;53.232;6.570;2024-03-25T09:14:41;100789.91;;;8.84;100.00
75221;BME280;63802;53.232;6.570;2024-03-25T09:17:13;100766.38;;;8.76;100.00
75221;BME280;63802;53.232;6.570;2024-03-25T09:19:49;100760.03;;;9.03;100.00
75221;BME280;63802;53.232;6.570;2024-03-25T09:22:29;100734.09;;;9.25;100.00
75221;BME280;63802;53.232;6.570;2024-03-25T09:24:58;100742.53;;;9.55;100.00
75221;BME280;63802;53.232;6.570;2024-03-25T09:27:29;100758.91;;;9.93;100.00
75221;BME280;63802;53.232;6.570;2024-03-25T09:29:58;100741.66;;;9.89;100.00
75221;BME280;63802;53.232;6.570;2024-03-25T09:32:44;100769.28;;;10.06;100.00
75221;BME280;63802;53.232;6.570;2024-03-25T09:35:13;100716.72;;;9.87;100.00
75221;BME280;63802;53.232;6.570;2024-03-25T09:37:41;100743.41;;;10.16;100.00
75221;BME280;63802;53.232;6.570;2024-03-25T09:40:41;100768.47;;;10.44;100.00
75221;BME280;63802;53.232;6.570;2024-03-25T09:43:24;100739.66;;;10.47;100.00
75221;BME280;63802;53.232;6.570;2024-03-25T09:45:54;100738.91;;;10.95;100.00
75221;BME280;63802;53.232;6.570;2024-03-25T09:48:25;100725.84;;;11.08;100.00
75221;BME280;63802;53.232;6.570;2024-03-25T09:50:53;100732.41;;;10.77;100.00
75221;BME280;63802;53.232;6.570;2024-03-25T09:53:19;100776.94;;;11.33;100.00
75221;BME280;63802;53.232;6.570;2024-03-25T09:55:48;100757.69;;;11.53;100.00
75221;BME280;63802;53.232;6.570;2024-03-25T09:58:15;100768.00;;;11.66;100.00
75221;BME280;63802;53.232;6.570;2024-03-25T10:00:43;100776.31;;;12.03;100.00
75221;BME280;63802;53.232;6.570;2024-03-25T10:03:14;100738.22;;;11.84;100.00
75221;BME280;63802;53.232;6.570;2024-03-25T10:05:58;100722.97;;;12.20;100.00
75221;BME280;63802;53.232;6.570;2024-03-25T10:14:38;100759.19;;;12.09;100.00
75221;BME280;63802;53.232;6.570;2024-03-25T10:17:08;100717.97;;;11.03;100.00
75221;BME280;63802;53.232;6.570;2024-03-25T10:19:34;100748.00;;;11.03;100.00
75221;BME280;63802;53.232;6.570;2024-03-25T10:22:09;100774.88;;;11.01;100.00
75221;BME280;63802;53.232;6.570;2024-03-25T10:24:39;100715.44;;;9.81;100.00
75221;BME280;63802;53.232;6.570;2024-03-25T10:27:22;100739.31;;;9.49;100.00
75221;BME280;63802;53.232;6.570;2024-03-25T10:29:54;100784.09;;;9.52;100.00
75221;BME280;63802;53.232;6.570;2024-03-25T10:32:21;100742.00;;;9.14;100.00
75221;BME280;63802;53.232;6.570;2024-03-25T10:34:50;100766.34;;;9.07;100.00
75221;BME280;63802;53.232;6.570;2024-03-25T10:37:17;100736.44;;;8.92;100.00
75221;BME280;63802;53.232;6.570;2024-03-25T10:39:51;100786.31;;;9.11;100.00
75221;BME280;63802;53.232;6.570;2024-03-25T10:42:20;100762.34;;;9.01;100.00
75221;BME280;63802;53.232;6.570;2024-03-25T10:44:47;100788.81;;;9.35;100.00
75221;BME280;63802;53.232;6.570;2024-03-25T10:47:21;100749.31;;;9.10;100.00
75221;BME280;63802;53.232;6.570;2024-03-25T10:50:12;100774.66;;;9.65;100.00
75221;BME280;63802;53.232;6.570;2024-03-25T10:52:44;100768.78;;;9.82;100.00
75221;BME280;63802;53.232;6.570;2024-03-25T10:55:12;100777.38;;;9.65;100.00
75221;BME280;63802;53.232;6.570;2024-03-25T10:57:40;100776.97;;;10.01;100.00
75221;BME280;63802;53.232;6.570;2024-03-25T11:00:07;100765.19;;;10.35;100.00
75221;BME280;63802;53.232;6.570;2024-03-25T11:02:33;100775.28;;;10.76;100.00
75221;BME280;63802;53.232;6.570;2024-03-25T11:04:59;100738.59;;;11.26;100.00
75221;BME280;63802;53.232;6.570;2024-03-25T11:07:32;100738.59;;;11.26;100.00
75221;BME280;63802;53.232;6.570;2024-03-25T11:10:05;100757.59;;;12.86;100.00
75221;BME280;63802;53.232;6.570;2024-03-25T11:12:50;100758.88;;;13.53;100.00
75221;BME280;63802;53.232;6.570;2024-03-25T11:15:16;100705.78;;;14.07;100.00
75221;BME280;63802;53.232;6.570;2024-03-25T11:17:49;100731.59;;;13.92;100.00
75221;BME280;63802;53.232;6.570;2024-03-25T11:20:24;100700.38;;;14.35;100.00
75221;BME280;63802;53.232;6.570;2024-03-25T11:22:56;100712.09;;;14.25;100.00
75221;BME280;63802;53.232;6.570;2024-03-25T11:25:22;100682.34;;;14.66;100.00
75221;BME280;63802;53.232;6.570;2024-03-25T11:27:48;100703.09;;;15.13;100.00
75221;BME280;63802;53.232;6.570;2024-03-25T11:30:23;100685.09;;;14.80;100.00
75221;BME280;63802;53.232;6.570;2024-03-25T11:32:53;100681.94;;;14.32;100.00
75221;BME280;63802;53.232;6.570;2024-03-25T11:35:19;100701.16;;;14.82;100.00
75221;BME280;63802;53.232;6.570;2024-03-25T11:37:48;100674.38;;;13.90;100.00
75221;BME280;63802;53.232;6.570;2024-03-25T11:40:20;100696.91;;;13.41;100.00
75221;BME280;63802;53.232;6.570;2024-03-25T11:42:46;100707.72;;;13.13;100.00
75221;BME280;63802;53.232;6.570;2024-03-25T11:45:19;100690.72;;;12.39;100.00
75221;BME280;63802;53.232;6.570;2024-03-25T11:47:47;100657.88;;;11.62;100.00
75221;BME280;63802;53.232;6.570;2024-03-25T11:50:26;100693.72;;;11.57;100.00
75221;BME280;63802;53.232;6.570;2024-03-25T11:53:05;100657.34;;;11.20;100.00
75221;BME280;63802;53.232;6.570;2024-03-25T11:55:34;100657.16;;;11.06;100.00
75221;BME280;63802;53.232;6.570;2024-03-25T12:00:48;100687.81;;;10.96;100.00
75221;BME280;63802;53.232;6.570;2024-03-25T12:03:15;100711.13;;;11.16;100.00
75221;BME280;63802;53.232;6.570;2024-03-25T12:05:51;100716.47;;;10.83;100.00
75221;BME280;63802;53.232;6.570;2024-03-25T12:08:19;100709.03;;;10.80;100.00
75221;BME280;63802;53.232;6.570;2024-03-25T12:10:47;100649.41;;;10.55;100.00
75221;BME280;63802;53.232;6.570;2024-03-25T12:13:31;100687.25;;;10.83;100.00
75221;BME280;63802;53.232;6.570;2024-03-25T12:15:57;100653.38;;;10.61;100.00
75221;BME280;63802;53.232;6.570;2024-03-25T12:18:23;100677.75;;;10.73;100.00
75221;BME280;63802;53.232;6.570;2024-03-25T12:20:51;100666.31;;;10.91;100.00
75221;BME280;63802;53.232;6.570;2024-03-25T12:23:20;100644.06;;;10.62;100.00
75221;BME280;63802;53.232;6.570;2024-03-25T12:25:54;100663.78;;;10.52;100.00
75221;BME280;63802;53.232;6.570;2024-03-25T12:28:23;100656.50;;;10.60;100.00
75221;BME280;63802;53.232;6.570;2024-03-25T12:30:51;100649.63;;;10.69;100.00
75221;BME280;63802;53.232;6.570;2024-03-25T12:33:23;100703.19;;;10.55;100.00
75221;BME280;63802;53.232;6.570;2024-03-25T12:35:50;100676.19;;;10.27;100.00
75221;BME280;63802;53.232;6.570;2024-03-25T12:40:49;100661.97;;;10.15;100.00
75221;BME280;63802;53.232;6.570;2024-03-25T12:43:18;100677.91;;;10.35;100.00
75221;BME280;63802;53.232;6.570;2024-03-25T12:45:46;100682.69;;;10.42;100.00
75221;BME280;63802;53.232;6.570;2024-03-25T12:50:58;100670.88;;;10.83;100.00
75221;BME280;63802;53.232;6.570;2024-03-25T12:53:32;100619.00;;;10.57;100.00
75221;BME280;63802;53.232;6.570;2024-03-25T12:55:57;100636.66;;;10.89;100.00
75221;BME280;63802;53.232;6.570;2024-03-25T12:58:23;100667.00;;;11.43;100.00
75221;BME280;63802;53.232;6.570;2024-03-25T13:00:49;100660.38;;;11.74;100.00
75221;BME280;63802;53.232;6.570;2024-03-25T13:03:17;100636.38;;;11.94;100.00
75221;BME280;63802;53.232;6.570;2024-03-25T13:05:43;100639.63;;;12.06;100.00
75221;BME280;63802;53.232;6.570;2024-03-25T13:08:11;100630.31;;;12.15;100.00
75221;BME280;63802;53.232;6.570;2024-03-25T13:10:46;100645.56;;;12.19;100.00
75221;BME280;63802;53.232;6.570;2024-03-25T13:13:19;100635.63;;;11.97;100.00
75221;BME280;63802;53.232;6.570;2024-03-25T13:15:45;100646.44;;;11.86;100.00
75221;BME280;63802;53.232;6.570;2024-03-25T13:18:23;100626.59;;;11.60;100.00
75221;BME280;63802;53.232;6.570;2024-03-25T13:20:48;100647.50;;;12.12;100.00
75221;BME280;63802;53.232;6.570;2024-03-25T13:23:14;100595.31;;;11.90;100.00
75221;BME280;63802;53.232;6.570;2024-03-25T13:25:40;100626.75;;;12.10;100.00
75221;BME280;63802;53.232;6.570;2024-03-25T13:28:08;100628.06;;;12.24;100.00
75221;BME280;63802;53.232;6.570;2024-03-25T13:30:34;100586.28;;;11.83;100.00
75221;BME280;63802;53.232;6.570;2024-03-25T13:33:03;100628.06;;;12.24;100.00
75221;BME280;63802;53.232;6.570;2024-03-25T13:35:52;100616.78;;;11.88;100.00
75221;BME280;63802;53.232;6.570;2024-03-25T13:41:11;100574.22;;;11.54;100.00
75221;BME280;63802;53.232;6.570;2024-03-25T13:43:42;100601.03;;;11.78;100.00
75221;BME280;63802;53.232;6.570;2024-03-25T13:46:11;100603.16;;;11.95;100.00
75221;BME280;63802;53.232;6.570;2024-03-25T13:48:37;100597.75;;;12.02;100.00
75221;BME280;63802;53.232;6.570;2024-03-25T13:51:06;100596.47;;;11.89;100.00
75221;BME280;63802;53.232;6.570;2024-03-25T13:53:31;100592.84;;;11.78;100.00
75221;BME280;63802;53.232;6.570;2024-03-25T13:55:57;100580.59;;;11.65;100.00
75221;BME280;63802;53.232;6.570;2024-03-25T13:58:23;100614.56;;;12.04;100.00
75221;BME280;63802;53.232;6.570;2024-03-25T14:00:49;100600.13;;;12.55;100.00
75221;BME280;63802;53.232;6.570;2024-03-25T14:03:15;100583.81;;;12.72;100.00
75221;BME280;63802;53.232;6.570;2024-03-25T14:05:41;100612.88;;;12.91;100.00
75221;BME280;63802;53.232;6.570;2024-03-25T14:08:06;100586.53;;;12.69;100.00
75221;BME280;63802;53.232;6.570;2024-03-25T14:10:32;100587.16;;;13.06;100.00
75221;BME280;63802;53.232;6.570;2024-03-25T14:12:57;100581.63;;;12.99;100.00
75221;BME280;63802;53.232;6.570;2024-03-25T14:15:23;100544.69;;;12.68;100.00
75221;BME280;63802;53.232;6.570;2024-03-25T14:17:48;100582.31;;;12.78;100.00
75221;BME280;63802;53.232;6.570;2024-03-25T14:20:14;100595.78;;;13.08;100.00
75221;BME280;63802;53.232;6.570;2024-03-25T14:22:40;100548.03;;;13.09;100.00
75221;BME280;63802;53.232;6.570;2024-03-25T14:25:11;100557.03;;;13.06;100.00
75221;BME280;63802;53.232;6.570;2024-03-25T14:27:49;100567.34;;;13.59;100.00
75221;BME280;63802;53.232;6.570;2024-03-25T14:30:22;100544.28;;;14.05;100.00
75221;BME280;63802;53.232;6.570;2024-03-25T14:33:07;100552.91;;;14.46;100.00
75221;BME280;63802;53.232;6.570;2024-03-25T14:35:47;100558.41;;;15.43;100.00
75221;BME280;63802;53.232;6.570;2024-03-25T14:38:13;100513.81;;;15.15;100.00
75221;BME280;63802;53.232;6.570;2024-03-25T14:40:39;100560.44;;;15.32;100.00
75221;BME280;63802;53.232;6.570;2024-03-25T14:43:05;100524.22;;;14.54;100.00
75221;BME280;63802;53.232;6.570;2024-03-25T14:45:30;100541.13;;;14.42;100.00
75221;BME280;63802;53.232;6.570;2024-03-25T14:48:03;100538.00;;;14.33;100.00
75221;BME280;63802;53.232;6.570;2024-03-25T14:50:29;100537.59;;;14.24;100.00
75221;BME280;63802;53.232;6.570;2024-03-25T14:52:55;100506.66;;;13.81;100.00
75221;BME280;63802;53.232;6.570;2024-03-25T14:55:23;100534.06;;;13.78;100.00
75221;BME280;63802;53.232;6.570;2024-03-25T14:57:52;100558.66;;;13.32;100.00
75221;BME280;63802;53.232;6.570;2024-03-25T15:00:21;100534.66;;;12.97;100.00
75221;BME280;63802;53.232;6.570;2024-03-25T15:02:49;100511.72;;;12.47;100.00
75221;BME280;63802;53.232;6.570;2024-03-25T15:05:15;100518.88;;;12.66;100.00
75221;BME280;63802;53.232;6.570;2024-03-25T15:07:40;100530.19;;;12.61;100.00
75221;BME280;63802;53.232;6.570;2024-03-25T15:10:06;100547.31;;;12.51;100.00
75221;BME280;63802;53.232;6.570;2024-03-25T15:12:31;100482.44;;;11.93;100.00
75221;BME280;63802;53.232;6.570;2024-03-25T15:14:57;100510.69;;;12.08;100.00
75221;BME280;63802;53.232;6.570;2024-03-25T15:17:22;100470.81;;;12.03;100.00
75221;BME280;63802;53.232;6.570;2024-03-25T15:19:48;100494.22;;;12.01;100.00
75221;BME280;63802;53.232;6.570;2024-03-25T15:22:15;100491.00;;;11.88;100.00
75221;BME280;63802;53.232;6.570;2024-03-25T15:24:41;100467.34;;;11.66;100.00
75221;BME280;63802;53.232;6.570;2024-03-25T15:27:06;100491.38;;;11.87;100.00
75221;BME280;63802;53.232;6.570;2024-03-25T15:29:32;100514.00;;;11.80;100.00
75221;BME280;63802;53.232;6.570;2024-03-25T15:31:58;100505.06;;;11.90;100.00
75221;BME280;63802;53.232;6.570;2024-03-25T15:34:26;100463.34;;;11.53;100.00
75221;BME280;63802;53.232;6.570;2024-03-25T15:36:55;100456.84;;;11.24;100.00
75221;BME280;63802;53.232;6.570;2024-03-25T15:39:26;100482.28;;;11.32;100.00
75221;BME280;63802;53.232;6.570;2024-03-25T15:41:52;100448.88;;;11.09;100.00
75221;BME280;63802;53.232;6.570;2024-03-25T15:44:23;100455.03;;;10.99;100.00